Ljuta — J8B4127 — position and weather

sailwx.info

Track history (hours):
 
Tides and Currents Weather Stations Pressure Air Temp Water Temp Dewpoint Dewpoint Depression Visibility Wind Speed Wind Dir Waves Ship Positions

Ljuta

Last reported at 2017-Feb-18 04:27 UTC. Time now 2017-Feb-26 14:43 UTC.
Position N 36°28' E 014°37'.
Warning: this ship's position is 8 days out of date.

Length 177 m; draft 6.1 m.

Type: Cargo ship. MMSI: 377715000.

Date/timePositionNaut miles runAvg speedWind from/ knotsBaromVisibWave heightAir tempDewpointWater temp
2017-Feb-18 04:27N 36°28' E 014°37'1314.6
2017-Feb-18 03:32N 36°32' E 014°22'1514.8
2017-Feb-18 02:33N 36°37' E 014°04'1515.0
2017-Feb-18 01:33N 36°41' E 013°46'1715.0
2017-Feb-18 00:24N 36°47' E 013°26'1414.4
2017-Feb-17 23:27N 36°51' E 013°10'1614.4
2017-Feb-17 22:22N 36°56' E 012°51'22614.3
2017-Feb-17 06:30N 38°20' E 008°26'26714.0
2017-Feb-16 11:24N 40°40' E 003°31'1214.6
2017-Feb-16 10:33N 40°46' E 003°18'1414.4
2017-Feb-16 09:33N 40°54' E 003°01'1514.6
2017-Feb-16 08:33N 41°01' E 002°45'1414.3
2017-Feb-16 07:33N 41°09' E 002°29'1514.2
2017-Feb-16 06:32N 41°16' E 002°12'6 0.2
2017-Feb-14 19:27N 41°22' E 002°11'0 0.0
2017-Feb-14 17:33N 41°22' E 002°11'0 0.0
2017-Feb-14 13:33N 41°22' E 002°11'0 0.0
2017-Feb-14 12:15N 41°22' E 002°11'0 0.0
2017-Feb-14 11:27N 41°22' E 002°11'0 0.0
2017-Feb-12 23:25N 41°22' E 002°11'0 0.0
2017-Feb-12 21:31N 41°22' E 002°11'  
2017-Feb-10 12:17N 41°06' E 002°06'1013.2
2017-Feb-10 11:33N 40°57' E 001°60'1313.1
2017-Feb-10 10:33N 40°45' E 001°51'1313.5
2017-Feb-10 09:33N 40°33' E 001°43'1313.2
2017-Feb-10 08:34N 40°22' E 001°36'1312.7
2017-Feb-10 07:33N 40°10' E 001°28'1312.6
2017-Feb-10 06:33N 39°59' E 001°20'1313.0
2017-Feb-10 05:32N 39°48' E 001°12'2612.8
2017-Feb-10 03:30N 39°24' E 000°57'12113.5
2017-Feb-09 18:33N 37°41' W 000°24'1413.6
2017-Feb-09 17:33N 37°31' W 000°35'1413.5
2017-Feb-09 16:33N 37°22' W 000°47'19713.0
2017-Feb-09 01:28N 36°09' W 004°36'1314.7
2017-Feb-09 00:33N 36°07' W 004°52'1616.3
2017-Feb-08 23:33N 36°06' W 005°12'10 9.9
2017-Feb-08 22:33N 36°05' W 005°24'0 0.2
2017-Feb-08 21:33N 36°05' W 005°25'0 0.1
2017-Feb-08 20:33N 36°05' W 005°24'0 0.1
2017-Feb-08 19:33N 36°05' W 005°24'0 0.1
2017-Feb-08 18:30N 36°05' W 005°24'0 0.0
2017-Feb-08 17:33N 36°05' W 005°24'0 0.1
2017-Feb-08 16:33N 36°05' W 005°25'0 0.3
2017-Feb-08 15:33N 36°06' W 005°24'5 5.2
2017-Feb-08 14:33N 36°00' W 005°24'  
Track history (hours):
 
Tides and Currents Weather Stations Pressure Air Temp Water Temp Dewpoint Dewpoint Depression Visibility Wind Speed Wind Dir Waves Ship Positions

Ljuta

Last reported at 2017-Feb-18 04:27 UTC. Time now 2017-Feb-26 14:43 UTC.
Position N 36°28' E 014°37'.
Warning: this ship's position is 8 days out of date.

Length 177 m; draft 6.1 m.

Type: Cargo ship. MMSI: 377715000.

Date/timePositionNaut miles runAvg speedWind from/ knotsBaromVisibWave heightAir tempDewpointWater temp
2017-Feb-18 04:27N 36°28' E 014°37'1314.6
2017-Feb-18 03:32N 36°32' E 014°22'1514.8
2017-Feb-18 02:33N 36°37' E 014°04'1515.0
2017-Feb-18 01:33N 36°41' E 013°46'1715.0
2017-Feb-18 00:24N 36°47' E 013°26'1414.4
2017-Feb-17 23:27N 36°51' E 013°10'1614.4
2017-Feb-17 22:22N 36°56' E 012°51'22614.3
2017-Feb-17 06:30N 38°20' E 008°26'26714.0
2017-Feb-16 11:24N 40°40' E 003°31'1214.6
2017-Feb-16 10:33N 40°46' E 003°18'1414.4
2017-Feb-16 09:33N 40°54' E 003°01'1514.6
2017-Feb-16 08:33N 41°01' E 002°45'1414.3
2017-Feb-16 07:33N 41°09' E 002°29'1514.2
2017-Feb-16 06:32N 41°16' E 002°12'6 0.2
2017-Feb-14 19:27N 41°22' E 002°11'0 0.0
2017-Feb-14 17:33N 41°22' E 002°11'0 0.0
2017-Feb-14 13:33N 41°22' E 002°11'0 0.0
2017-Feb-14 12:15N 41°22' E 002°11'0 0.0
2017-Feb-14 11:27N 41°22' E 002°11'0 0.0
2017-Feb-12 23:25N 41°22' E 002°11'0 0.0
2017-Feb-12 21:31N 41°22' E 002°11'  
2017-Feb-10 12:17N 41°06' E 002°06'1013.2
2017-Feb-10 11:33N 40°57' E 001°60'1313.1
2017-Feb-10 10:33N 40°45' E 001°51'1313.5
2017-Feb-10 09:33N 40°33' E 001°43'1313.2
2017-Feb-10 08:34N 40°22' E 001°36'1312.7
2017-Feb-10 07:33N 40°10' E 001°28'1312.6
2017-Feb-10 06:33N 39°59' E 001°20'1313.0
2017-Feb-10 05:32N 39°48' E 001°12'2612.8
2017-Feb-10 03:30N 39°24' E 000°57'12113.5
2017-Feb-09 18:33N 37°41' W 000°24'1413.6
2017-Feb-09 17:33N 37°31' W 000°35'1413.5
2017-Feb-09 16:33N 37°22' W 000°47'19713.0
2017-Feb-09 01:28N 36°09' W 004°36'1314.7
2017-Feb-09 00:33N 36°07' W 004°52'1616.3
2017-Feb-08 23:33N 36°06' W 005°12'10 9.9
2017-Feb-08 22:33N 36°05' W 005°24'0 0.2
2017-Feb-08 21:33N 36°05' W 005°25'0 0.1
2017-Feb-08 20:33N 36°05' W 005°24'0 0.1
2017-Feb-08 19:33N 36°05' W 005°24'0 0.1
2017-Feb-08 18:30N 36°05' W 005°24'0 0.0
2017-Feb-08 17:33N 36°05' W 005°24'0 0.1
2017-Feb-08 16:33N 36°05' W 005°25'0 0.3
2017-Feb-08 15:33N 36°06' W 005°24'5 5.2
2017-Feb-08 14:33N 36°00' W 005°24'  

Dump ship's entire track history